createdAt,value
2018-02-08T00:00:21.179Z,49.07
2018-02-08T00:02:48.658Z,51.80
2018-02-08T00:05:16.126Z,48.53
2018-02-08T00:07:43.589Z,53.50
2018-02-08T00:10:11.041Z,48.77
2018-02-08T00:12:38.484Z,45.73
2018-02-08T00:15:05.957Z,42.70
2018-02-08T00:17:33.425Z,52.27
2018-02-08T00:20:01.743Z,46.53
2018-02-08T00:22:41.004Z,43.80
2018-02-08T00:25:08.499Z,46.77
2018-02-08T00:27:36.719Z,48.43
2018-02-08T00:30:04.176Z,47.50
2018-02-08T00:32:31.719Z,61.83
2018-02-08T00:34:59.190Z,54.87
2018-02-08T00:37:26.674Z,48.73
2018-02-08T00:39:54.150Z,52.43
2018-02-08T00:42:21.645Z,60.27
2018-02-08T00:44:49.871Z,61.50
2018-02-08T00:47:17.331Z,49.23
2018-02-08T00:49:44.778Z,52.13
2018-02-08T00:52:13.008Z,54.77
2018-02-08T00:54:41.263Z,63.77
2018-02-08T00:57:08.708Z,52.97
2018-02-08T00:59:36.181Z,54.23
2018-02-08T01:02:03.659Z,59.63
2018-02-08T01:04:31.879Z,56.93
2018-02-08T01:06:59.348Z,62.40
2018-02-08T01:09:26.826Z,59.40
2018-02-08T01:11:54.405Z,57.57
2018-02-08T01:14:21.852Z,56.57
2018-02-08T01:16:49.308Z,59.43
2018-02-08T01:19:16.820Z,72.10
2018-02-08T01:21:44.426Z,56.87
2018-02-08T01:24:11.867Z,69.23
2018-02-08T01:26:39.348Z,57.80
2018-02-08T01:29:06.879Z,58.50
2018-02-08T01:31:34.450Z,58.50
2018-02-08T01:34:01.895Z,61.27
2018-02-08T01:36:29.394Z,65.30
2018-02-08T01:38:58.051Z,64.23
2018-02-08T01:41:25.506Z,56.93
2018-02-08T01:43:52.979Z,57.77
2018-02-08T01:46:20.455Z,49.90
2018-02-08T01:48:48.679Z,62.13
2018-02-08T01:51:16.149Z,59.23
2018-02-08T01:53:43.637Z,60.47
2018-02-08T01:56:11.865Z,54.70
2018-02-08T01:58:39.356Z,56.90
2018-02-08T02:01:06.811Z,58.27
2018-02-08T02:03:34.287Z,60.67
2018-02-08T02:06:01.727Z,57.50
2018-02-08T02:08:29.197Z,53.30
2018-02-08T02:10:56.654Z,63.93
2018-02-08T02:13:24.103Z,59.70
2018-02-08T02:15:51.576Z,56.33
2018-02-08T02:18:19.046Z,57.93
2018-02-08T02:20:47.305Z,57.90
2018-02-08T02:23:14.762Z,61.67
2018-02-08T02:25:42.217Z,63.03
2018-02-08T02:28:09.684Z,56.90
2018-02-08T02:30:37.218Z,60.67
2018-02-08T02:33:04.703Z,60.30
2018-02-08T02:35:32.253Z,61.20
2018-02-08T02:37:59.719Z,63.63
2018-02-08T02:40:27.988Z,62.37
2018-02-08T02:42:55.435Z,62.63
2018-02-08T02:45:22.928Z,56.37
2018-02-08T02:47:51.199Z,62.73
2018-02-08T02:50:18.657Z,54.87
2018-02-08T02:52:46.117Z,56.57
2018-02-08T02:55:14.358Z,71.97
2018-02-08T02:57:41.807Z,65.10
2018-02-08T03:00:10.040Z,61.20
2018-02-08T03:02:38.285Z,58.63
2018-02-08T03:05:05.747Z,66.27
2018-02-08T03:07:33.219Z,58.80
2018-02-08T03:10:01.435Z,64.60
2018-02-08T03:12:28.907Z,61.47
2018-02-08T03:14:56.394Z,59.57
2018-02-08T03:17:23.853Z,56.30
2018-02-08T03:19:51.313Z,57.27
2018-02-08T03:22:18.766Z,60.67
2018-02-08T03:24:46.210Z,61.80
2018-02-08T03:27:13.684Z,72.77
2018-02-08T03:29:41.127Z,59.37
2018-02-08T03:32:08.627Z,55.60
2018-02-08T03:34:36.858Z,57.73
2018-02-08T03:37:04.324Z,58.73
2018-02-08T03:39:31.807Z,50.83
2018-02-08T03:41:59.314Z,54.10
2018-02-08T03:44:26.750Z,63.60
2018-02-08T03:46:54.230Z,63.87
2018-02-08T03:49:21.686Z,57.70
2018-02-08T03:51:49.156Z,62.90
2018-02-08T03:54:16.609Z,54.53
2018-02-08T03:56:44.074Z,54.70
2018-02-08T03:59:11.555Z,61.10
2018-02-08T04:01:39.015Z,60.60
2018-02-08T04:04:06.487Z,54.40
2018-02-08T04:06:34.002Z,57.23
2018-02-08T04:09:01.483Z,59.73
2018-02-08T04:11:28.939Z,61.40
2018-02-08T04:13:56.418Z,60.47
2018-02-08T04:16:23.867Z,54.37
2018-02-08T04:18:51.341Z,57.03
2018-02-08T04:21:18.788Z,59.07
2018-02-08T04:23:46.816Z,53.40
2018-02-08T04:26:14.280Z,56.17
2018-02-08T04:28:41.735Z,52.60
2018-02-08T04:31:09.191Z,58.43
2018-02-08T04:33:36.666Z,57.67
2018-02-08T04:36:04.119Z,63.10
2018-02-08T04:38:43.370Z,57.67
2018-02-08T04:41:22.520Z,57.30
2018-02-08T04:43:59.794Z,53.37
2018-02-08T04:46:39.063Z,53.70
2018-02-08T04:49:07.307Z,56.53
2018-02-08T04:51:34.773Z,60.67
2018-02-08T04:54:02.287Z,57.43
2018-02-08T04:56:29.758Z,55.63
2018-02-08T04:58:57.209Z,56.43
2018-02-08T05:01:24.674Z,60.10
2018-02-08T05:03:52.171Z,57.23
2018-02-08T05:06:19.630Z,69.47
2018-02-08T05:08:47.690Z,61.73
2018-02-08T05:11:15.167Z,65.90
2018-02-08T05:13:42.614Z,72.13
2018-02-08T05:16:10.075Z,62.93
2018-02-08T05:18:37.534Z,67.00
2018-02-08T05:21:05.003Z,57.30
2018-02-08T05:23:33.267Z,59.23
2018-02-08T05:26:00.727Z,63.33
2018-02-08T05:28:28.183Z,63.50
2018-02-08T05:30:55.646Z,65.97
2018-02-08T05:33:23.107Z,70.97
2018-02-08T05:35:50.567Z,67.17
2018-02-08T05:38:18.038Z,59.33
2018-02-08T05:40:45.551Z,66.30
2018-02-08T05:43:12.987Z,58.60
2018-02-08T05:45:40.455Z,58.33
2018-02-08T05:48:07.910Z,60.60
2018-02-08T05:50:35.386Z,58.50
2018-02-08T05:53:02.843Z,72.80
2018-02-08T05:55:30.324Z,62.70
2018-02-08T05:57:57.803Z,60.63
2018-02-08T06:00:26.044Z,55.53
2018-02-08T06:02:53.535Z,66.53
2018-02-08T06:05:20.988Z,58.03
2018-02-08T06:07:48.439Z,58.27
2018-02-08T06:10:15.918Z,67.47
2018-02-08T06:12:44.166Z,69.77
2018-02-08T06:15:11.638Z,59.63
2018-02-08T06:17:39.116Z,66.73
2018-02-08T06:20:07.337Z,57.23
2018-02-08T06:22:34.825Z,60.80
2018-02-08T06:25:02.385Z,58.73
2018-02-08T06:27:29.827Z,66.23
2018-02-08T06:29:57.302Z,68.37
2018-02-08T06:32:24.762Z,65.73
2018-02-08T06:34:52.220Z,62.17
2018-02-08T06:37:19.678Z,60.87
2018-02-08T06:39:47.951Z,64.17
2018-02-08T06:42:15.408Z,64.50
2018-02-08T06:44:42.865Z,60.20
2018-02-08T06:47:10.312Z,70.60
2018-02-08T06:49:37.784Z,61.53
2018-02-08T06:52:06.011Z,57.77
2018-02-08T06:54:33.491Z,61.00
2018-02-08T06:57:00.940Z,60.37
2018-02-08T06:59:28.411Z,59.10
2018-02-08T07:01:55.862Z,70.60
2018-02-08T07:04:23.342Z,65.33
2018-02-08T07:06:50.807Z,65.67
2018-02-08T07:09:18.286Z,70.87
2018-02-08T07:11:46.615Z,61.47
2018-02-08T07:14:14.073Z,75.93
2018-02-08T07:16:41.593Z,68.10
2018-02-08T07:19:09.009Z,66.20
2018-02-08T07:21:36.474Z,74.10
2018-02-08T07:24:03.953Z,69.43
2018-02-08T07:26:32.199Z,70.53
2018-02-08T07:28:59.656Z,68.27
2018-02-08T07:31:27.154Z,61.40
2018-02-08T07:33:55.383Z,71.60
2018-02-08T07:36:22.862Z,67.80
2018-02-08T07:38:50.331Z,76.40
2018-02-08T07:41:17.780Z,79.90
2018-02-08T07:43:45.645Z,67.50
2018-02-08T07:46:13.085Z,65.10
2018-02-08T07:48:40.550Z,65.63
2018-02-08T07:51:08.019Z,62.73
2018-02-08T07:53:35.506Z,70.17
2018-02-08T07:56:02.968Z,73.43
2018-02-08T07:58:30.451Z,74.00
2018-02-08T08:00:57.932Z,66.17
2018-02-08T08:03:25.410Z,60.17
2018-02-08T08:05:54.374Z,69.03
2018-02-08T08:08:21.865Z,61.80
2018-02-08T08:10:49.326Z,64.80
2018-02-08T08:13:16.767Z,60.20
2018-02-08T08:15:44.237Z,74.43
2018-02-08T08:18:11.687Z,66.33
2018-02-08T08:20:39.157Z,60.83
2018-02-08T08:23:06.616Z,80.03
2018-02-08T08:25:34.093Z,63.00
2018-02-08T08:28:02.315Z,57.17
2018-02-08T08:30:29.806Z,61.53
2018-02-08T08:32:57.353Z,72.30
2018-02-08T08:35:24.836Z,65.77
2018-02-08T08:37:53.065Z,63.37
2018-02-08T08:40:20.547Z,57.80
2018-02-08T08:42:48.020Z,65.63
2018-02-08T08:45:15.471Z,59.00
2018-02-08T08:47:42.935Z,55.43
2018-02-08T08:50:10.402Z,62.83
2018-02-08T08:52:38.653Z,61.07
2018-02-08T08:55:06.131Z,59.70
2018-02-08T08:57:33.590Z,61.87
2018-02-08T09:00:01.052Z,57.93
2018-02-08T09:02:28.514Z,54.07
2018-02-08T09:04:56.795Z,53.73
2018-02-08T09:07:25.036Z,66.60
2018-02-08T09:09:52.515Z,59.90
2018-02-08T09:12:19.993Z,56.10
2018-02-08T09:14:48.250Z,52.93
2018-02-08T09:17:15.732Z,53.50
2018-02-08T09:19:43.998Z,52.63
2018-02-08T09:22:12.236Z,48.73
2018-02-08T09:24:39.679Z,60.57
2018-02-08T09:27:07.158Z,52.97
2018-02-08T09:29:34.646Z,54.87
2018-02-08T09:32:02.880Z,56.70
2018-02-08T09:34:30.348Z,65.77
2018-02-08T09:36:57.802Z,56.77
2018-02-08T09:39:25.284Z,58.30
2018-02-08T09:41:52.744Z,64.40
2018-02-08T09:44:20.217Z,60.33
2018-02-08T09:46:48.447Z,57.90
2018-02-08T09:49:15.927Z,62.67
2018-02-08T09:51:43.402Z,68.70
2018-02-08T09:54:10.942Z,52.23
2018-02-08T09:56:38.449Z,57.77
2018-02-08T09:59:05.913Z,55.23
2018-02-08T10:01:33.395Z,58.53
2018-02-08T10:04:00.863Z,60.20
2018-02-08T10:06:28.355Z,53.03
2018-02-08T10:08:56.655Z,52.23
2018-02-08T10:11:24.879Z,48.27
2018-02-08T10:13:52.352Z,53.63
2018-02-08T10:16:19.912Z,54.10
2018-02-08T10:18:47.588Z,50.47
2018-02-08T10:21:15.104Z,50.10
2018-02-08T10:23:42.603Z,62.10
2018-02-08T10:26:10.071Z,48.67
2018-02-08T10:28:38.310Z,49.80
2018-02-08T10:31:05.795Z,48.73
2018-02-08T10:33:33.247Z,50.70
2018-02-08T10:36:00.817Z,45.50
2018-02-08T10:38:28.244Z,46.03
2018-02-08T10:40:55.727Z,47.13
2018-02-08T10:43:23.205Z,45.37
2018-02-08T10:45:51.496Z,52.63
2018-02-08T10:48:18.979Z,50.90
2018-02-08T10:50:46.482Z,47.77
2018-02-08T10:53:14.020Z,61.10
2018-02-08T10:55:41.476Z,51.93
2018-02-08T10:58:08.948Z,61.77
2018-02-08T11:00:36.447Z,57.90
2018-02-08T11:03:03.935Z,62.80
2018-02-08T11:05:31.411Z,58.50
2018-02-08T11:07:58.882Z,62.30
2018-02-08T11:10:26.355Z,59.77
2018-02-08T11:12:53.797Z,63.23
2018-02-08T11:15:21.283Z,64.03
2018-02-08T11:17:49.507Z,64.90
2018-02-08T11:20:17.005Z,73.90
2018-02-08T11:22:46.219Z,69.80
2018-02-08T11:25:14.443Z,61.30
2018-02-08T11:27:41.888Z,64.50
2018-02-08T11:30:09.415Z,65.20
2018-02-08T11:32:37.634Z,61.83
2018-02-08T11:35:05.103Z,56.40
2018-02-08T11:37:32.583Z,79.33
2018-02-08T11:40:00.074Z,58.20
2018-02-08T11:42:28.332Z,59.17
2018-02-08T11:44:55.792Z,56.60
2018-02-08T11:47:23.266Z,56.87
2018-02-08T11:49:51.478Z,60.23
2018-02-08T11:52:18.927Z,56.40
2018-02-08T11:54:46.386Z,56.70
2018-02-08T11:57:13.950Z,59.03
2018-02-08T11:59:41.619Z,52.30
2018-02-08T12:02:09.069Z,51.40
2018-02-08T12:04:36.544Z,54.97
2018-02-08T12:07:04.055Z,56.67
2018-02-08T12:09:32.286Z,55.20
2018-02-08T12:11:59.774Z,48.80
2018-02-08T12:14:28.008Z,52.50
2018-02-08T12:16:55.527Z,49.50
2018-02-08T12:19:23.743Z,59.07
2018-02-08T12:21:51.185Z,55.10
2018-02-08T12:24:18.646Z,50.57
2018-02-08T12:26:46.157Z,52.13
2018-02-08T12:29:13.615Z,47.23
2018-02-08T12:31:41.084Z,47.90
2018-02-08T12:34:09.320Z,46.63
2018-02-08T12:36:36.807Z,37.37
2018-02-08T12:39:04.251Z,48.20
2018-02-08T12:41:31.722Z,46.97
2018-02-08T12:43:59.167Z,47.23
2018-02-08T12:46:26.651Z,45.73
2018-02-08T12:48:54.100Z,44.00
2018-02-08T12:51:21.568Z,41.97
2018-02-08T12:53:49.782Z,45.97
2018-02-08T12:56:17.381Z,44.30
2018-02-08T12:58:44.860Z,39.53
2018-02-08T13:01:13.087Z,41.77
2018-02-08T13:03:40.583Z,47.37
2018-02-08T13:06:08.027Z,47.27
2018-02-08T13:08:35.496Z,42.03
2018-02-08T13:11:02.947Z,39.90
2018-02-08T13:13:30.403Z,45.07
2018-02-08T13:15:57.899Z,40.93
2018-02-08T13:18:26.147Z,40.90
2018-02-08T13:20:53.596Z,43.23
2018-02-08T13:23:21.084Z,37.50
2018-02-08T13:25:49.306Z,36.07
2018-02-08T13:28:16.764Z,38.43
2018-02-08T13:30:44.227Z,39.20
2018-02-08T13:33:11.703Z,32.27
2018-02-08T13:35:39.152Z,35.60
2018-02-08T13:38:06.619Z,40.17
2018-02-08T13:40:40.571Z,36.83
2018-02-08T13:43:09.702Z,41.40
2018-02-08T13:45:37.155Z,38.47
2018-02-08T13:48:19.513Z,42.33
2018-02-08T13:50:56.903Z,44.97
2018-02-08T13:53:41.048Z,46.73
2018-02-08T13:56:25.275Z,41.00
2018-02-08T13:58:58.287Z,45.47
2018-02-08T14:01:28.866Z,46.73
2018-02-08T14:03:56.310Z,43.03
2018-02-08T14:06:23.866Z,49.40
2018-02-08T14:08:52.071Z,50.07
2018-02-08T14:11:19.571Z,50.30
2018-02-08T14:13:47.044Z,48.27
2018-02-08T14:16:14.547Z,41.50
2018-02-08T14:18:42.020Z,48.90
2018-02-08T14:21:09.577Z,52.40
2018-02-08T14:23:37.043Z,45.87
2018-02-08T14:26:04.521Z,50.00
2018-02-08T14:28:31.979Z,47.83
2018-02-08T14:31:00.218Z,46.00
2018-02-08T14:33:27.699Z,49.60
2018-02-08T14:35:55.208Z,56.87
2018-02-08T14:38:23.501Z,50.20
2018-02-08T14:40:51.742Z,53.40
2018-02-08T14:43:19.975Z,47.57
2018-02-08T14:45:47.458Z,52.77
2018-02-08T14:48:14.934Z,50.60
2018-02-08T14:50:43.172Z,47.63
2018-02-08T14:53:10.659Z,50.10
2018-02-08T14:55:38.141Z,50.10
2018-02-08T14:58:06.379Z,54.77
2018-02-08T15:00:33.878Z,42.50
2018-02-08T15:03:02.181Z,38.63
2018-02-08T15:05:29.658Z,40.10
2018-02-08T15:07:57.115Z,40.47
2018-02-08T15:10:24.590Z,43.13
2018-02-08T15:12:52.082Z,38.27
2018-02-08T15:15:20.344Z,39.23
2018-02-08T15:17:47.783Z,43.40
2018-02-08T15:21:30.952Z,52.50
2018-02-08T15:23:59.319Z,50.43
2018-02-08T15:33:12.255Z,41.50
2018-02-08T15:35:39.792Z,42.80
2018-02-08T15:38:07.267Z,36.70
2018-02-08T15:40:34.833Z,38.70
2018-02-08T15:43:02.340Z,39.63
2018-02-08T15:45:30.612Z,38.60
2018-02-08T15:47:58.920Z,38.20
2018-02-08T15:50:26.413Z,43.17
2018-02-08T15:52:53.950Z,41.87
2018-02-08T15:55:21.395Z,43.73
2018-02-08T15:57:48.863Z,39.97
2018-02-08T16:00:16.365Z,41.47
2018-02-08T16:02:44.083Z,44.40
2018-02-08T16:05:11.551Z,40.03
2018-02-08T16:07:39.132Z,35.30
2018-02-08T16:10:06.580Z,41.93
2018-02-08T16:12:34.112Z,45.37
2018-02-08T16:15:01.587Z,36.80
2018-02-08T16:17:29.079Z,41.23
2018-02-08T16:19:56.568Z,40.10
2018-02-08T16:22:24.226Z,43.80
2018-02-08T16:24:52.680Z,40.20
2018-02-08T16:27:20.229Z,45.10
2018-02-08T16:29:47.689Z,44.63
2018-02-08T16:32:15.211Z,47.33
2018-02-08T16:34:42.877Z,41.93
2018-02-08T16:37:10.378Z,49.50
2018-02-08T16:39:38.718Z,46.13
2018-02-08T16:42:06.201Z,43.13
2018-02-08T16:44:33.681Z,50.57
2018-02-08T16:47:01.193Z,46.97
2018-02-08T16:49:28.695Z,49.03
2018-02-08T16:51:56.312Z,45.67
2018-02-08T16:54:23.920Z,47.40
2018-02-08T16:56:51.402Z,44.27
2018-02-08T16:59:18.856Z,48.90
2018-02-08T17:01:47.182Z,45.53
2018-02-08T17:04:14.642Z,51.00
2018-02-08T17:06:42.118Z,50.17
2018-02-08T17:09:09.607Z,46.70
2018-02-08T17:11:37.853Z,44.40
2018-02-08T17:14:05.387Z,43.83
2018-02-08T17:16:32.875Z,44.20
2018-02-08T17:19:00.436Z,45.90
2018-02-08T17:21:27.903Z,45.40
2018-02-08T17:23:55.386Z,48.33
2018-02-08T17:26:23.629Z,52.33
2018-02-08T17:28:51.107Z,49.43
2018-02-08T17:31:20.115Z,48.77
2018-02-08T17:33:48.422Z,51.53
2018-02-08T17:36:15.884Z,54.70
2018-02-08T17:38:43.343Z,61.57
2018-02-08T17:41:10.807Z,55.00
2018-02-08T17:43:38.310Z,60.73
2018-02-08T17:46:05.808Z,50.33
2018-02-08T17:48:33.494Z,57.13
2018-02-08T17:51:00.994Z,48.20
2018-02-08T17:53:28.600Z,56.10
2018-02-08T17:55:56.155Z,57.20
2018-02-08T17:58:23.625Z,56.40
2018-02-08T18:00:51.123Z,51.53
2018-02-08T18:03:18.575Z,53.37
2018-02-08T18:05:46.135Z,58.23
2018-02-08T18:08:13.599Z,56.73
2018-02-08T18:10:41.135Z,56.00
2018-02-08T18:13:08.616Z,61.00
2018-02-08T18:15:36.083Z,55.87
2018-02-08T18:18:04.507Z,51.97
2018-02-08T18:20:31.962Z,48.90
2018-02-08T18:22:59.556Z,55.03
2018-02-08T18:25:27.033Z,54.33
2018-02-08T18:27:54.540Z,52.20
2018-02-08T18:30:22.043Z,55.30
2018-02-08T18:32:49.607Z,58.67
2018-02-08T18:35:17.079Z,50.20
2018-02-08T18:37:45.556Z,55.67
2018-02-08T18:40:13.950Z,61.07
2018-02-08T18:42:41.536Z,52.53
2018-02-08T18:45:08.967Z,56.70
2018-02-08T18:47:37.345Z,55.40
2018-02-08T18:50:04.846Z,57.03
2018-02-08T18:52:32.398Z,54.77
2018-02-08T18:54:59.852Z,60.40
2018-02-08T18:57:27.366Z,61.23
2018-02-08T18:59:54.835Z,59.97
2018-02-08T19:02:23.113Z,56.83
2018-02-08T19:04:51.346Z,60.67
2018-02-08T19:07:18.818Z,59.17
2018-02-08T19:09:46.342Z,60.17
2018-02-08T19:12:13.832Z,63.07
2018-02-08T19:14:41.362Z,59.67
2018-02-08T19:17:09.111Z,59.27
2018-02-08T19:19:36.965Z,58.13
2018-02-08T19:22:05.291Z,53.80
2018-02-08T19:24:32.761Z,58.93
2018-02-08T19:27:00.468Z,62.30
2018-02-08T19:29:28.324Z,63.67
2018-02-08T19:31:55.816Z,64.67
2018-02-08T19:34:23.382Z,63.50
2018-02-08T19:36:50.826Z,62.97
2018-02-08T19:39:18.859Z,61.60
2018-02-08T19:41:46.391Z,58.27
2018-02-08T19:44:14.088Z,60.53
2018-02-08T19:46:41.657Z,66.63
2018-02-08T19:49:09.899Z,67.73
2018-02-08T19:51:37.393Z,73.23
2018-02-08T19:54:05.672Z,65.00
2018-02-08T19:56:33.983Z,69.87
2018-02-08T19:59:01.455Z,69.00
2018-02-08T20:01:29.624Z,70.43
2018-02-08T20:03:57.075Z,72.43
2018-02-08T20:06:24.644Z,68.17
2018-02-08T20:08:52.263Z,64.00
2018-02-08T20:11:20.530Z,64.17
2018-02-08T20:13:47.983Z,68.73
2018-02-08T20:16:16.219Z,72.07
2018-02-08T20:18:43.971Z,67.73
2018-02-08T20:21:11.424Z,67.23
2018-02-08T20:23:39.641Z,70.97
2018-02-08T20:26:07.120Z,67.43
2018-02-08T20:28:34.732Z,68.50
2018-02-08T20:31:07.870Z,72.63
2018-02-08T20:33:36.130Z,77.83
2018-02-08T20:36:03.636Z,70.80
2018-02-08T20:38:31.861Z,71.93
2018-02-08T20:40:59.549Z,75.83
2018-02-08T20:43:28.843Z,74.83
2018-02-08T20:45:56.306Z,73.87
2018-02-08T20:48:23.829Z,78.90
2018-02-08T20:50:51.552Z,74.47
2018-02-08T20:53:19.819Z,94.63
2018-02-08T20:55:47.694Z,90.80
2018-02-08T20:58:15.690Z,86.80
2018-02-08T21:00:43.229Z,103.70
2018-02-08T21:03:11.543Z,75.23
2018-02-08T21:05:39.069Z,78.90
2018-02-08T21:08:07.491Z,78.37
2018-02-08T21:10:34.950Z,73.33
2018-02-08T21:13:02.439Z,73.47
2018-02-08T21:15:31.419Z,79.13
2018-02-08T21:17:58.887Z,74.20
2018-02-08T21:20:26.351Z,79.97
2018-02-08T21:22:54.636Z,82.87
2018-02-08T21:25:22.953Z,82.70
2018-02-08T21:27:50.428Z,82.87
2018-02-08T21:30:18.232Z,79.63
2018-02-08T21:32:47.224Z,84.83
2018-02-08T21:35:15.470Z,76.57
2018-02-08T21:37:43.480Z,77.10
2018-02-08T21:40:10.937Z,82.93
2018-02-08T21:42:39.204Z,89.07
2018-02-08T21:45:06.660Z,83.83
2018-02-08T21:47:34.234Z,83.63
2018-02-08T21:50:02.474Z,83.40
2018-02-08T21:52:29.961Z,80.43
2018-02-08T21:54:58.229Z,78.17
2018-02-08T21:57:25.690Z,78.83
2018-02-08T21:59:53.149Z,80.60
2018-02-08T22:02:20.862Z,88.57
2018-02-08T22:04:48.333Z,87.00
2018-02-08T22:07:15.894Z,74.80
2018-02-08T22:09:43.439Z,86.17
2018-02-08T22:12:10.926Z,81.73
2018-02-08T22:14:38.418Z,80.63
2018-02-08T22:17:05.927Z,90.27
2018-02-08T22:19:33.391Z,75.53
2018-02-08T22:22:01.321Z,82.67
2018-02-08T22:24:28.836Z,80.90
2018-02-08T22:26:56.317Z,82.00
2018-02-08T22:29:24.491Z,76.60
2018-02-08T22:31:52.051Z,78.67
2018-02-08T22:34:19.652Z,80.33
2018-02-08T22:36:47.148Z,74.13
2018-02-08T22:39:14.623Z,78.60
2018-02-08T22:41:42.321Z,82.87
2018-02-08T22:44:10.539Z,81.77
2018-02-08T22:46:38.192Z,83.60
2018-02-08T22:49:05.723Z,84.50
2018-02-08T22:51:33.195Z,87.37
2018-02-08T22:54:00.779Z,84.10
2018-02-08T22:56:28.257Z,95.30
2018-02-08T22:58:55.819Z,83.07
2018-02-08T23:01:23.383Z,95.17
2018-02-08T23:03:50.862Z,88.40
2018-02-08T23:06:19.121Z,103.03
2018-02-08T23:08:47.070Z,86.10
2018-02-08T23:11:14.653Z,81.17
2018-02-08T23:13:42.898Z,86.50
2018-02-08T23:16:10.391Z,110.77
2018-02-08T23:18:37.855Z,83.30
2018-02-08T23:21:05.332Z,93.90
2018-02-08T23:23:33.551Z,88.00
2018-02-08T23:26:01.032Z,81.97
2018-02-08T23:28:28.519Z,88.53
2018-02-08T23:30:56.779Z,105.67
2018-02-08T23:33:24.237Z,81.80
2018-02-08T23:35:51.703Z,71.00
2018-02-08T23:38:19.933Z,79.70
2018-02-08T23:40:47.425Z,81.83
2018-02-08T23:43:14.953Z,85.63
2018-02-08T23:45:42.419Z,67.87
2018-02-08T23:48:09.873Z,74.27
2018-02-08T23:50:37.374Z,72.33
2018-02-08T23:53:05.659Z,66.17
2018-02-08T23:55:33.883Z,74.83
2018-02-08T23:58:01.383Z,76.60
